Time,TemperatureF,DewpointF,PressureIn,WindDirection,WindDirectionDegrees,WindSpeedMPH,WindSpeedGustMPH,Humidity,HourlyPrecipIn,Conditions,Clouds,dailyrainin,SoftwareType,DateUTC
2013-05-08 00:01:00,58.0,30.0,29.65,North,10,2.0,5.0,34,0.00,,,0.00,,2013-05-08 06:01:00,
2013-05-08 00:12:00,58.0,30.0,29.65,North,10,2.0,5.0,34,0.00,,,0.00,,2013-05-08 06:12:00,
2013-05-08 00:21:00,58.0,30.0,29.65,North,10,2.0,5.0,34,0.00,,,0.00,,2013-05-08 06:21:00,
2013-05-08 02:32:00,51.0,37.0,29.70,NW,319,6.0,8.0,58,0.00,,,0.00,,2013-05-08 08:32:00,
2013-05-08 02:43:00,51.0,37.0,29.70,NW,319,6.0,8.0,58,0.00,,,0.00,,2013-05-08 08:43:00,
2013-05-08 02:52:00,51.0,38.0,29.70,NNW,327,3.0,9.0,60,0.00,,,0.00,,2013-05-08 08:52:00,
2013-05-08 03:02:00,51.0,39.0,29.71,NW,321,3.0,8.0,63,0.00,,,0.00,,2013-05-08 09:02:00,
2013-05-08 03:11:00,51.0,39.0,29.71,NW,321,3.0,8.0,63,0.00,,,0.00,,2013-05-08 09:11:00,
2013-05-08 03:12:00,50.0,40.0,29.72,NNW,337,5.0,8.0,68,0.00,,,0.00,,2013-05-08 09:12:00,
2013-05-08 03:21:00,51.0,40.0,29.71,NNW,340,5.0,7.0,66,0.00,,,0.00,,2013-05-08 09:21:00,
2013-05-08 03:32:00,50.0,40.0,29.72,NNW,337,5.0,8.0,68,0.00,,,0.00,,2013-05-08 09:32:00,
2013-05-08 03:42:00,50.0,40.0,29.72,NNW,337,5.0,8.0,68,0.00,,,0.00,,2013-05-08 09:42:00,
2013-05-08 03:52:00,50.0,40.0,29.72,NNW,337,5.0,8.0,68,0.00,,,0.00,,2013-05-08 09:52:00,
2013-05-08 04:02:00,50.0,40.0,29.72,NNW,337,5.0,8.0,68,0.00,,,0.00,,2013-05-08 10:02:00,
2013-05-08 06:21:00,45.0,38.0,29.78,NNW,332,5.0,8.0,77,0.00,,,0.00,,2013-05-08 12:21:00,
2013-05-08 06:32:00,45.0,39.0,29.79,NNW,337,3.0,8.0,78,0.00,,,0.00,,2013-05-08 12:32:00,
2013-05-08 06:41:00,45.0,39.0,29.79,NNW,337,3.0,8.0,78,0.00,,,0.00,,2013-05-08 12:41:00,
2013-05-08 06:42:00,46.0,40.0,29.80,North,350,7.0,10.0,79,0.00,,,0.00,,2013-05-08 12:42:00,
2013-05-08 06:51:00,45.0,39.0,29.79,NNW,340,5.0,7.0,79,0.00,,,0.00,,2013-05-08 12:51:00,
2013-05-08 07:01:00,46.0,40.0,29.80,North,350,7.0,10.0,79,0.00,,,0.00,,2013-05-08 13:01:00,
2013-05-08 07:11:00,46.0,40.0,29.80,North,350,7.0,10.0,79,0.00,,,0.00,,2013-05-08 13:11:00,
2013-05-08 07:21:00,46.0,40.0,29.80,North,350,7.0,10.0,79,0.00,,,0.00,,2013-05-08 13:21:00,
2013-05-08 07:32:00,46.0,40.0,29.80,North,350,7.0,10.0,79,0.00,,,0.00,,2013-05-08 13:32:00,
2013-05-08 09:53:00,54.0,40.0,29.85,NNE,22,11.0,16.0,59,0.00,,,0.00,,2013-05-08 15:53:00,
2013-05-08 10:03:00,55.0,41.0,29.85,NE,42,9.0,15.0,58,0.00,,,0.00,,2013-05-08 16:03:00,
2013-05-08 10:12:00,55.0,41.0,29.85,NE,42,9.0,15.0,58,0.00,,,0.00,,2013-05-08 16:12:00,
2013-05-08 10:23:00,55.0,40.0,29.85,NNE,17,9.0,15.0,57,0.00,,,0.00,,2013-05-08 16:23:00,
2013-05-08 10:33:00,56.0,41.0,29.86,NE,41,9.0,18.0,56,0.00,,,0.00,,2013-05-08 16:33:00,
2013-05-08 10:42:00,56.0,41.0,29.86,NE,41,9.0,18.0,56,0.00,,,0.00,,2013-05-08 16:42:00,
2013-05-08 10:52:00,56.0,41.0,29.86,NE,41,9.0,18.0,56,0.00,,,0.00,,2013-05-08 16:52:00,
2013-05-08 11:02:00,56.0,41.0,29.86,NE,41,9.0,18.0,56,0.00,,,0.00,,2013-05-08 17:02:00,
2013-05-08 13:22:00,65.0,42.0,29.86,NE,36,9.0,14.0,43,0.00,,,0.00,,2013-05-08 19:22:00,
2013-05-08 13:32:00,65.0,41.0,29.86,NNE,18,5.0,13.0,42,0.00,,,0.00,,2013-05-08 19:32:00,
2013-05-08 13:42:00,65.0,41.0,29.86,NNE,18,5.0,13.0,42,0.00,,,0.00,,2013-05-08 19:42:00,
2013-05-08 13:52:00,66.0,42.0,29.86,NNE,30,7.0,15.0,42,0.00,,,0.00,,2013-05-08 19:52:00,
2013-05-08 14:02:00,66.0,40.0,29.86,NNE,30,10.0,16.0,39,0.00,,,0.00,,2013-05-08 20:02:00,
2013-05-08 14:11:00,66.0,40.0,29.86,NNE,30,10.0,16.0,39,0.00,,,0.00,,2013-05-08 20:11:00,
2013-05-08 14:22:00,67.0,41.0,29.86,NNE,24,10.0,17.0,38,0.00,,,0.00,,2013-05-08 20:22:00,
2013-05-08 14:32:00,67.0,41.0,29.86,NNE,24,10.0,17.0,38,0.00,,,0.00,,2013-05-08 20:32:00,
2013-05-08 14:42:00,67.0,41.0,29.86,NNE,24,10.0,17.0,38,0.00,,,0.00,,2013-05-08 20:42:00,
2013-05-08 14:51:00,67.0,41.0,29.86,NNE,24,10.0,17.0,38,0.00,,,0.00,,2013-05-08 20:51:00,
2013-05-08 17:01:00,65.0,39.0,29.87,North,11,10.0,15.0,39,0.00,,,0.00,,2013-05-08 23:01:00,
2013-05-08 17:11:00,65.0,39.0,29.87,North,360,9.0,16.0,39,0.00,,,0.00,,2013-05-08 23:11:00,
2013-05-08 17:22:00,65.0,39.0,29.87,North,360,9.0,16.0,39,0.00,,,0.00,,2013-05-08 23:22:00,
2013-05-08 17:32:00,64.0,39.0,29.87,North,355,9.0,15.0,39,0.00,,,0.00,,2013-05-08 23:32:00,
2013-05-08 17:42:00,64.0,39.0,29.87,NNE,23,9.0,14.0,40,0.00,,,0.00,,2013-05-08 23:42:00,
2013-05-08 17:52:00,64.0,39.0,29.87,NNE,23,9.0,14.0,40,0.00,,,0.00,,2013-05-08 23:52:00,
2013-05-08 18:02:00,64.0,39.0,29.87,NNE,23,9.0,14.0,40,0.00,,,0.00,,2013-05-09 00:02:00,
2013-05-08 18:12:00,64.0,39.0,29.87,NNE,23,9.0,14.0,40,0.00,,,0.00,,2013-05-09 00:12:00,
2013-05-08 18:21:00,64.0,39.0,29.87,NNE,23,9.0,14.0,40,0.00,,,0.00,,2013-05-09 00:21:00,
2013-05-08 20:33:00,59.0,38.0,29.89,NE,34,6.0,13.0,46,0.00,,,0.00,,2013-05-09 02:33:00,
2013-05-08 20:42:00,59.0,38.0,29.89,NE,34,6.0,13.0,46,0.00,,,0.00,,2013-05-09 02:42:00,
2013-05-08 20:52:00,59.0,38.0,29.89,NE,34,6.0,13.0,46,0.00,,,0.00,,2013-05-09 02:52:00,
2013-05-08 21:01:00,58.0,39.0,29.90,NNE,19,6.0,11.0,49,0.00,,,0.00,,2013-05-09 03:01:00,
2013-05-08 21:11:00,58.0,39.0,29.90,NNE,19,6.0,11.0,49,0.00,,,0.00,,2013-05-09 03:11:00,
2013-05-08 21:21:00,57.0,39.0,29.91,NNE,26,7.0,12.0,51,0.00,,,0.00,,2013-05-09 03:21:00,
2013-05-08 21:33:00,57.0,39.0,29.91,NNE,26,7.0,12.0,51,0.00,,,0.00,,2013-05-09 03:33:00,
2013-05-08 21:43:00,57.0,39.0,29.91,NNE,26,7.0,12.0,51,0.00,,,0.00,,2013-05-09 03:43:00,
2013-05-08 21:52:00,57.0,39.0,29.91,NNE,26,7.0,12.0,51,0.00,,,0.00,,2013-05-09 03:52:00,